Time;durP1;ratioP1;P1;durP2;ratioP2;P2;SDS_P1;SDS_P2;PMS_P1;PMS_P2;Temp;Humidity;BMP_temperature;BMP_pressure;BME280_temperature;BME280_humidity;BME280_pressure;Samples;Min_cycle;Max_cycle;Signal;HPM_P1;HPM_P2
2022/08/30 00:02:16;;;;;;;3.30;1.33;;;;;;;-148.88;88.26;75769.09;5055342;28;20086;-75
2022/08/30 00:04:41;;;;;;;3.47;1.88;;;;;;;-148.88;88.41;75781.28;5055236;28;20025;-75
2022/08/30 00:07:06;;;;;;;2.92;1.60;;;;;;;-148.88;88.36;75781.28;5055124;28;20578;-75
2022/08/30 00:09:32;;;;;;;3.70;1.67;;;;;;;-148.88;88.58;75777.22;5055323;28;20079;-75
2022/08/30 00:11:58;;;;;;;4.60;1.80;;;;;;;-148.88;88.31;75777.22;5055229;28;20024;-75
2022/08/30 00:14:26;;;;;;;3.58;1.48;;;;;;;-148.88;88.16;75769.09;5055445;28;20033;-76
2022/08/30 00:16:51;;;;;;;3.92;1.90;;;;;;;-148.88;88.10;75779.25;5053820;28;20028;-75
2022/08/30 00:19:17;;;;;;;2.97;1.60;;;;;;;-148.88;88.77;75785.34;5055002;28;20028;-75
2022/08/30 00:21:42;;;;;;;4.75;1.80;;;;;;;-148.88;88.83;75775.19;5055800;28;20021;-75
2022/08/30 00:24:08;;;;;;;3.22;1.58;;;;;;;-148.88;88.32;75777.22;5054960;28;20509;-75
2022/08/30 00:26:33;;;;;;;3.45;1.50;;;;;;;-148.88;88.21;75781.28;5053588;28;20027;-75
2022/08/30 00:28:58;;;;;;;2.47;1.33;;;;;;;-148.88;88.31;75787.38;5055018;28;20029;-74
2022/08/30 00:31:23;;;;;;;3.25;1.63;;;;;;;-148.88;88.11;75781.28;5055160;28;20384;-74
2022/08/30 00:33:49;;;;;;;2.47;1.50;;;;;;;-148.88;87.70;75795.50;5054608;28;20500;-74
2022/08/30 00:36:14;;;;;;;3.10;1.50;;;;;;;-148.88;88.25;75809.72;5055187;28;20021;-75
2022/08/30 00:38:40;;;;;;;2.78;1.50;;;;;;;-148.88;88.67;75799.56;5053386;28;20475;-75
2022/08/30 00:41:06;;;;;;;4.80;1.95;;;;;;;-148.88;88.97;75807.69;5055007;28;20032;-75
2022/08/30 00:43:35;;;;;;;2.85;1.70;;;;;;;-148.88;88.92;75805.66;5054682;28;20079;-74
2022/08/30 00:46:03;;;;;;;6.20;2.00;;;;;;;-148.88;88.84;75801.59;5054762;28;20052;-75
2022/08/30 00:48:32;;;;;;;2.92;1.80;;;;;;;-148.88;88.10;75805.66;5053788;28;20028;-75
2022/08/30 00:51:02;;;;;;;3.15;1.48;;;;;;;-148.88;88.18;75811.75;5054604;28;20028;-75
2022/08/30 00:53:35;;;;;;;2.00;1.30;;;;;;;-148.88;87.75;75823.94;5055343;28;20025;-75
2022/08/30 00:56:01;;;;;;;2.28;1.60;;;;;;;-148.88;87.40;75852.38;5054733;28;20021;-75
2022/08/30 00:58:30;;;;;;;2.72;1.40;;;;;;;-148.88;88.66;75876.75;5054303;28;20115;-75
2022/08/30 01:00:59;;;;;;;2.50;1.45;;;;;;;-148.88;89.73;75890.97;5054227;28;20472;-74
2022/08/30 01:03:25;;;;;;;3.22;1.60;;;;;;;-148.88;89.53;75882.84;5052909;28;20029;-74
2022/08/30 01:05:51;;;;;;;5.45;1.75;;;;;;;-148.88;89.12;75899.09;5054354;28;20051;-75
2022/08/30 01:08:19;;;;;;;2.13;1.50;;;;;;;-148.88;89.82;75895.03;5054051;28;20017;-75
2022/08/30 01:10:44;;;;;;;3.33;1.80;;;;;;;-148.88;90.36;75909.25;5054217;28;20029;-75
2022/08/30 01:13:12;;;;;;;2.20;1.40;;;;;;;-148.88;90.17;75923.47;5054067;28;20373;-74
2022/08/30 01:15:38;;;;;;;3.25;1.50;;;;;;;-148.88;90.13;75941.75;5053947;28;20078;-75
2022/08/30 01:18:04;;;;;;;2.60;1.48;;;;;;;-148.88;90.83;75927.53;5053869;28;20025;-75
2022/08/30 01:20:41;;;;;;;5.38;1.67;;;;;;;-148.88;90.39;75923.47;5053892;28;20506;-75
2022/08/30 01:23:11;;;;;;;2.17;1.52;;;;;;;-148.88;89.43;75960.03;5054090;28;20024;-75
2022/08/30 01:25:36;;;;;;;2.50;1.90;;;;;;;-148.88;91.17;75988.47;5054092;28;20024;-75
2022/08/30 01:28:09;;;;;;;3.38;1.75;;;;;;;-148.88;91.55;75996.59;5052766;28;20033;-75
2022/08/30 01:30:41;;;;;;;4.43;1.60;;;;;;;-148.88;92.04;75994.56;5054597;28;20031;-74
2022/08/30 01:33:08;;;;;;;2.58;1.80;;;;;;;-148.88;92.58;75980.34;5054152;28;20491;-75
2022/08/30 01:35:43;;;;;;;3.15;1.60;;;;;;;-148.88;91.97;75982.38;5053632;28;20025;-74
2022/08/30 01:38:11;;;;;;;2.75;1.70;;;;;;;-148.88;91.41;75992.53;5053771;28;20033;-75
2022/08/30 01:40:36;;;;;;;2.63;1.77;;;;;;;-148.88;92.44;76027.06;5053502;28;20025;-75
2022/08/30 01:43:02;;;;;;;3.13;2.00;;;;;;;-148.88;93.10;76033.16;5052165;28;20027;-74
2022/08/30 01:45:27;;;;;;;4.38;2.10;;;;;;;-148.88;93.87;76049.41;5053610;28;20025;-75
2022/08/30 01:47:52;;;;;;;6.15;1.92;;;;;;;-148.88;94.48;76045.34;5053447;28;20487;-74
2022/08/30 01:50:18;;;;;;;3.75;2.20;;;;;;;-148.88;94.43;76045.34;5053580;28;20510;-74
2022/08/30 01:52:43;;;;;;;2.50;1.50;;;;;;;-148.88;94.58;76047.38;5053234;28;20021;-75
2022/08/30 01:55:09;;;;;;;3.33;1.95;;;;;;;-148.88;94.65;76045.34;5053250;28;20502;-75
2022/08/30 01:57:34;;;;;;;4.28;1.65;;;;;;;-148.88;94.24;76037.22;5051866;28;20013;-75
2022/08/30 02:00:00;;;;;;;3.42;1.80;;;;;;;-148.88;94.55;76041.28;5052278;28;20017;-74
2022/08/30 02:02:28;;;;;;;3.78;1.83;;;;;;;-148.88;94.31;76033.16;5053230;28;20040;-75
2022/08/30 02:04:54;;;;;;;5.07;2.20;;;;;;;-148.88;95.76;76014.88;5053359;28;20029;-74
2022/08/30 02:07:21;;;;;;;4.22;2.33;;;;;;;-148.88;96.40;76000.66;5052998;28;20025;-75
2022/08/30 02:09:46;;;;;;;3.85;2.00;;;;;;;-148.88;96.21;75994.56;5054285;28;20383;-74
2022/08/30 02:12:13;;;;;;;4.07;2.20;;;;;;;-148.88;96.50;75990.50;5053686;28;20491;-75
2022/08/30 02:14:38;;;;;;;3.17;2.22;;;;;;;-148.88;96.93;75978.31;5053286;28;20024;-75
2022/08/30 02:17:06;;;;;;;3.80;2.20;;;;;;;-148.88;96.91;75978.31;5052893;28;20032;-75
2022/08/30 02:19:32;;;;;;;3.25;2.10;;;;;;;-148.88;97.39;75966.13;5053391;28;20048;-75
2022/08/30 02:21:57;;;;;;;3.47;2.10;;;;;;;-148.88;97.66;75966.13;5053078;28;20379;-75
2022/08/30 02:24:22;;;;;;;3.50;2.10;;;;;;;-148.88;97.15;75968.16;5053116;28;20024;-75
2022/08/30 02:26:48;;;;;;;3.58;2.20;;;;;;;-148.88;97.01;75968.16;5052802;28;20511;-75
2022/08/30 02:29:14;;;;;;;3.85;2.17;;;;;;;-148.88;97.43;75966.13;5052728;28;20514;-75
2022/08/30 02:34:06;;;;;;;3.78;2.40;;;;;;;-148.88;97.27;75970.19;5070294;28;20041;-76
2022/08/30 02:36:32;;;;;;;4.10;2.30;;;;;;;-148.88;97.17;75980.34;5071467;28;20380;-76
2022/08/30 02:38:57;;;;;;;2.65;2.00;;;;;;;-148.88;97.54;75990.50;5071411;28;20025;-75
2022/08/30 02:41:22;;;;;;;3.28;2.38;;;;;;;-148.88;97.29;75986.44;5071384;28;20082;-75
2022/08/30 02:43:57;;;;;;;4.72;2.08;;;;;;;-148.88;97.14;75986.44;5093300;22;20498;-83
2022/08/30 02:46:22;;;;;;;2.40;1.67;;;;;;;-148.88;97.46;75984.41;5031996;28;20046;-83
2022/08/30 02:48:48;;;;;;;3.28;1.95;;;;;;;-148.88;97.29;75988.47;5032672;28;20065;-84
2022/08/30 02:51:35;;;;;;;3.38;1.90;;;;;;;-148.88;96.79;75980.34;5033611;28;20071;-84
2022/08/30 02:54:18;;;;;;;4.10;1.83;;;;;;;-148.88;96.87;75988.47;5033138;28;20078;-84
2022/08/30 02:56:47;;;;;;;3.35;2.00;;;;;;;-148.88;96.42;75998.63;5031742;28;20033;-83
2022/08/30 02:59:17;;;;;;;3.03;1.95;;;;;;;-148.88;97.23;76020.97;5031364;28;20121;-83
2022/08/30 03:01:49;;;;;;;4.45;2.10;;;;;;;-148.88;98.21;76012.84;5031009;28;20033;-83
2022/08/30 03:04:14;;;;;;;2.50;1.80;;;;;;;-148.88;98.19;76002.69;5047932;28;20475;-83
2022/08/30 03:06:40;;;;;;;8.93;2.30;;;;;;;-148.88;97.55;76000.66;5031579;28;20124;-85
2022/08/30 03:09:05;;;;;;;3.40;1.88;;;;;;;-148.88;97.27;75990.50;5032550;28;20117;-84
2022/08/30 03:11:31;;;;;;;3.10;2.10;;;;;;;-148.88;97.66;76008.78;5033334;28;20029;-84
2022/08/30 03:13:59;;;;;;;3.75;2.28;;;;;;;-148.88;97.95;76004.72;5036385;28;20684;-82
2022/08/30 03:16:33;;;;;;;3.22;2.35;;;;;;;-148.88;97.98;76004.72;5036604;28;20033;-82
2022/08/30 03:19:06;;;;;;;5.35;2.55;;;;;;;-148.88;98.17;76004.72;5035088;28;20113;-82
2022/08/30 03:21:35;;;;;;;;;;;;;;;-148.88;98.72;76008.78;5036716;28;20139;-81
2022/08/30 03:24:03;;;;;;;4.88;2.50;;;;;;;-148.88;98.46;76008.78;5034938;28;19909;-82
2022/08/30 03:26:39;;;;;;;4.93;2.40;;;;;;;-148.88;98.55;75996.59;5034284;28;20121;-81
2022/08/30 03:29:07;;;;;;;3.67;2.55;;;;;;;-148.88;98.30;76012.84;5035784;28;20112;-82
2022/08/30 03:31:32;;;;;;;3.38;2.28;;;;;;;-148.88;98.58;76012.84;5036700;28;20059;-82
2022/08/30 03:33:58;;;;;;;4.07;2.50;;;;;;;-148.88;98.79;76020.97;5034571;28;20048;-81
2022/08/30 03:36:23;;;;;;;4.40;2.75;;;;;;;-148.88;98.66;76029.09;5034526;28;20017;-82
2022/08/30 03:38:49;;;;;;;5.45;2.85;;;;;;;-148.88;99.45;76027.06;5034718;28;20033;-84
2022/08/30 03:41:16;;;;;;;5.50;2.30;;;;;;;-148.88;99.30;76033.16;5035935;28;20052;-84
2022/08/30 03:43:41;;;;;;;3.38;2.30;;;;;;;-148.88;98.97;76029.09;5034882;28;20018;-84
2022/08/30 03:46:10;;;;;;;3.90;2.50;;;;;;;-148.88;99.19;76029.09;5034275;28;20021;-85
2022/08/30 03:48:35;;;;;;;6.05;2.83;;;;;;;-148.88;99.69;76033.16;5034601;28;20021;-84
2022/08/30 03:51:00;;;;;;;4.22;2.70;;;;;;;-148.88;99.48;76027.06;5035093;28;20059;-84
2022/08/30 03:53:26;;;;;;;3.65;2.65;;;;;;;-148.88;99.75;76035.19;5035363;28;20392;-84
2022/08/30 03:55:51;;;;;;;4.22;2.67;;;;;;;-148.88;100.00;76029.09;5035702;28;20075;-84
2022/08/30 03:58:16;;;;;;;5.15;2.60;;;;;;;-148.88;100.00;76025.03;5034404;28;20021;-84
2022/08/30 04:00:42;;;;;;;5.80;2.88;;;;;;;-148.88;100.00;76020.97;5034707;28;20033;-84
2022/08/30 04:03:10;;;;;;;3.92;3.05;;;;;;;-148.88;100.00;76025.03;5034201;28;20091;-84
2022/08/30 04:05:35;;;;;;;6.10;3.10;;;;;;;-148.88;100.00;76014.88;5034226;28;20037;-85
2022/08/30 04:08:04;;;;;;;6.43;3.40;;;;;;;-148.88;100.00;76008.78;5034381;28;20488;-85
2022/08/30 04:10:30;;;;;;;5.25;3.60;;;;;;;-148.88;100.00;76008.78;5037012;28;20128;-84
2022/08/30 04:12:55;;;;;;;5.28;3.10;;;;;;;-148.88;100.00;76004.72;5046453;28;20033;-84
2022/08/30 04:15:21;;;;;;;4.50;3.20;;;;;;;-148.88;100.00;76000.66;5052524;28;20048;-84
2022/08/30 04:17:48;;;;;;;5.10;3.42;;;;;;;-148.88;100.00;75996.59;5066368;28;20064;-84
2022/08/30 04:20:17;;;;;;;5.18;3.42;;;;;;;-148.88;100.00;76000.66;5045896;28;20025;-85
2022/08/30 04:22:42;;;;;;;4.75;3.17;;;;;;;-148.88;100.00;76004.72;5037061;28;20028;-85
2022/08/30 04:25:08;;;;;;;5.63;3.40;;;;;;;-148.88;100.00;76012.84;5038846;28;20025;-85
2022/08/30 04:27:37;;;;;;;4.10;3.20;;;;;;;-148.88;100.00;76012.84;5039191;28;20017;-84
2022/08/30 04:30:03;;;;;;;6.97;3.83;;;;;;;-148.88;100.00;76020.97;5040174;28;20104;-84
2022/08/30 04:32:28;;;;;;;6.07;3.28;;;;;;;-148.88;100.00;76025.03;5038380;28;20048;-84
2022/08/30 04:34:58;;;;;;;5.82;3.50;;;;;;;-148.88;100.00;76020.97;5041618;28;20026;-85
2022/08/30 04:37:24;;;;;;;7.55;3.70;;;;;;;-148.88;100.00;76033.16;5039154;28;20036;-84
2022/08/30 04:40:02;;;;;;;6.10;3.80;;;;;;;-148.88;100.00;76033.16;5038972;28;20025;-84
2022/08/30 04:42:30;;;;;;;5.43;3.67;;;;;;;-148.88;100.00;76020.97;5039320;28;20052;-84
2022/08/30 04:45:05;;;;;;;7.57;3.58;;;;;;;-148.88;100.00;76023.00;5035912;28;20063;-84
2022/08/30 04:47:30;;;;;;;6.70;3.75;;;;;;;-148.88;100.00;76031.13;5035713;28;20040;-84
2022/08/30 04:49:56;;;;;;;5.32;3.60;;;;;;;-148.88;100.00;76027.06;5036695;28;20077;-85
2022/08/30 04:52:24;;;;;;;6.43;3.88;;;;;;;-148.88;100.00;76025.03;5033917;28;20029;-84
2022/08/30 04:54:54;;;;;;;7.13;3.97;;;;;;;-148.88;100.00;76031.13;5034585;28;20484;-83
2022/08/30 04:57:20;;;;;;;5.93;4.00;;;;;;;-148.88;100.00;76025.03;5033889;28;20026;-83
2022/08/30 04:59:45;;;;;;;5.90;4.15;;;;;;;-148.88;100.00;76027.06;5033399;28;20048;-83
2022/08/30 05:02:14;;;;;;;6.88;3.80;;;;;;;-148.88;100.00;76029.09;5035366;28;20033;-84
2022/08/30 05:05:38;;;;;;;5.10;3.90;;;;;;;-148.88;100.00;76020.97;5034751;28;20071;-83
2022/08/30 05:07:36;;;;;;;6.80;4.75;;;;;;;-148.88;100.00;76020.97;5035822;28;20044;-84
2022/08/30 05:10:06;;;;;;;7.70;5.70;;;;;;;-148.88;100.00;76018.94;5034884;28;20403;-84
2022/08/30 05:12:32;;;;;;;6.80;5.38;;;;;;;-148.88;100.00;76025.03;5036486;28;20060;-84
2022/08/30 05:15:06;;;;;;;10.70;7.18;;;;;;;-148.88;100.00;76020.97;5036879;28;20021;-84
2022/08/30 05:17:51;;;;;;;11.18;7.57;;;;;;;-148.88;100.00;76025.03;5034349;28;20025;-85
2022/08/30 05:20:37;;;;;;;12.27;8.32;;;;;;;-148.88;100.00;76025.03;5034764;28;20067;-84
2022/08/30 05:23:08;;;;;;;12.48;8.32;;;;;;;-148.88;100.00;76031.13;5033490;28;20034;-84
2022/08/30 05:25:38;;;;;;;13.50;9.05;;;;;;;-148.88;100.00;76029.09;5032070;28;20045;-84
2022/08/30 05:28:04;;;;;;;13.70;9.80;;;;;;;-148.88;100.00;76027.06;5033276;28;20543;-84
2022/08/30 05:30:32;;;;;;;17.10;10.30;;;;;;;-148.88;100.00;76029.09;5032527;28;20052;-85
2022/08/30 05:33:04;;;;;;;16.02;11.27;;;;;;;-148.88;100.00;76020.97;5034055;28;20132;-83
2022/08/30 05:35:41;;;;;;;16.10;11.43;;;;;;;-148.88;100.00;76020.97;5033683;28;20100;-80
2022/08/30 05:38:07;;;;;;;16.98;12.45;;;;;;;-148.88;100.00;76010.81;5033900;28;20056;-82
2022/08/30 05:40:42;;;;;;;17.08;13.68;;;;;;;-148.88;100.00;76012.84;5032239;28;20037;-84
2022/08/30 05:43:10;;;;;;;21.33;15.00;;;;;;;-148.88;100.00;76008.78;5049404;28;20101;-84
2022/08/30 05:45:44;;;;;;;22.30;16.85;;;;;;;-148.88;100.00;76010.81;5033369;28;20033;-82
2022/08/30 05:48:10;;;;;;;20.98;16.98;;;;;;;-148.88;100.00;76004.72;5032651;28;20388;-82
2022/08/30 05:50:35;;;;;;;20.35;15.75;;;;;;;-148.88;100.00;76004.72;5033656;28;20025;-82
2022/08/30 05:53:00;;;;;;;21.92;16.75;;;;;;;-148.88;100.00;75992.53;5033324;28;20491;-83
2022/08/30 05:55:36;;;;;;;24.52;17.67;;;;;;;-148.88;100.00;75996.59;5048499;28;20021;-84
2022/08/30 05:58:07;;;;;;;23.17;18.63;;;;;;;-148.88;100.00;75996.59;5031166;28;20360;-82
2022/08/30 06:00:40;;;;;;;23.38;18.90;;;;;;;-148.88;100.00;76000.66;5031843;28;20519;-82
2022/08/30 06:03:11;;;;;;;24.23;18.27;;;;;;;-148.88;100.00;75982.38;5032248;28;20036;-81
2022/08/30 06:05:37;;;;;;;21.38;17.95;;;;;;;-148.88;100.00;75982.38;5032162;28;20105;-82
2022/08/30 06:08:06;;;;;;;20.63;17.65;;;;;;;-148.88;100.00;75972.22;5033053;28;20049;-82
2022/08/30 06:10:40;;;;;;;21.48;17.20;;;;;;;-148.88;100.00;75964.09;5032397;28;20112;-82
2022/08/30 06:13:06;;;;;;;22.17;17.50;;;;;;;-148.88;100.00;75964.09;5033187;28;20428;-81
2022/08/30 06:15:36;;;;;;;24.92;19.63;;;;;;;-148.88;100.00;75960.03;5030367;28;20124;-81
2022/08/30 06:18:02;;;;;;;23.00;18.88;;;;;;;-148.88;100.00;75958.00;5033312;28;20037;-82
2022/08/30 06:20:31;;;;;;;23.13;19.83;;;;;;;-148.88;100.00;75941.75;5032013;28;20119;-82
2022/08/30 06:23:00;;;;;;;22.73;18.20;;;;;;;-148.88;100.00;75943.78;5031935;28;20063;-82
2022/08/30 06:25:28;;;;;;;19.23;15.75;;;;;;;-148.88;100.00;75947.84;5033464;28;20494;-82
2022/08/30 06:27:53;;;;;;;21.63;16.80;;;;;;;-148.88;100.00;75945.81;5033308;28;20021;-83
2022/08/30 06:30:25;;;;;;;19.23;15.70;;;;;;;-148.88;99.59;75943.78;5033038;28;20029;-81
2022/08/30 06:32:58;;;;;;;20.27;15.90;;;;;;;-148.88;99.62;75931.59;5032755;28;20092;-84
2022/08/30 06:35:34;;;;;;;;;;;;;;;-148.88;99.76;75927.53;5032464;28;20021;-84
2022/08/30 06:38:11;;;;;;;16.17;13.63;;;;;;;-148.88;99.08;75911.28;5031800;28;19909;-85
2022/08/30 06:40:39;;;;;;;15.88;13.25;;;;;;;-148.88;98.43;75907.22;5032005;28;20104;-85
2022/08/30 06:43:05;;;;;;;16.48;12.32;;;;;;;-148.88;97.32;75901.13;5031527;28;20083;-84
2022/08/30 06:45:40;;;;;;;14.50;12.15;;;;;;;-148.88;97.13;75897.06;5032226;28;20041;-84
2022/08/30 06:48:11;;;;;;;15.35;11.50;;;;;;;-148.88;96.24;75899.09;5035559;28;20025;-84
2022/08/30 06:50:40;;;;;;;15.43;12.10;;;;;;;-148.88;96.05;75890.97;5035514;28;20075;-84
2022/08/30 06:53:12;;;;;;;13.07;11.23;;;;;;;-148.88;96.20;75886.91;5035620;28;20129;-84
2022/08/30 06:55:38;;;;;;;14.88;11.77;;;;;;;-148.88;95.55;75884.88;5036939;28;20021;-85
2022/08/30 06:58:06;;;;;;;14.93;11.10;;;;;;;-148.88;95.70;75874.72;5035698;28;20075;-84
2022/08/30 07:00:39;;;;;;;14.57;10.93;;;;;;;-148.88;95.27;75858.47;5035542;28;20025;-85
2022/08/30 07:03:04;;;;;;;14.00;10.48;;;;;;;-148.88;94.91;75858.47;5036903;28;20031;-85
2022/08/30 07:05:34;;;;;;;12.48;10.57;;;;;;;-148.88;94.55;75852.38;5036210;28;20123;-84
2022/08/30 07:08:03;;;;;;;14.25;10.95;;;;;;;-148.88;94.43;75840.19;5035400;28;20041;-85
2022/08/30 07:10:28;;;;;;;12.90;9.77;;;;;;;-148.88;93.77;75825.97;5037015;28;20447;-84
2022/08/30 07:12:53;;;;;;;12.25;9.88;;;;;;;-148.88;93.48;75819.88;5036652;28;20100;-85
2022/08/30 07:15:24;;;;;;;14.52;9.98;;;;;;;-148.88;93.63;75803.63;5036597;28;20037;-84
2022/08/30 07:20:46;;;;;;;13.18;10.10;;;;;;;-148.88;92.59;75785.34;5036858;28;20511;-83
2022/08/30 07:23:19;;;;;;;10.63;9.30;;;;;;;-148.88;92.07;75773.16;5036359;28;20048;-82
2022/08/30 07:25:53;;;;;;;11.35;10.10;;;;;;;-148.88;90.92;75777.22;5035028;28;20090;-83
2022/08/30 07:28:19;;;;;;;13.52;9.48;;;;;;;-148.88;91.26;75785.34;5035423;28;20029;-82
2022/08/30 07:30:59;;;;;;;12.43;9.43;;;;;;;-148.88;90.95;75805.66;5037293;28;20074;-83
2022/08/30 07:33:25;;;;;;;11.65;9.23;;;;;;;-148.88;91.46;75805.66;5035638;28;20032;-83
2022/08/30 07:35:53;;;;;;;13.02;8.73;;;;;;;-148.88;91.28;75809.72;5035552;28;20033;-83
2022/08/30 07:38:21;;;;;;;13.20;8.73;;;;;;;-148.88;91.04;75813.78;5035081;28;20025;-81
2022/08/30 07:40:50;;;;;;;10.20;9.05;;;;;;;-148.88;90.92;75813.78;5036348;28;20100;-82
2022/08/30 07:43:24;;;;;;;9.98;8.98;;;;;;;-148.88;90.70;75813.78;5034738;28;20026;-82
2022/08/30 07:45:49;;;;;;;8.88;7.97;;;;;;;-148.88;90.49;75807.69;5034702;28;20120;-82
2022/08/30 07:48:17;;;;;;;10.77;8.50;;;;;;;-148.88;90.46;75805.66;5035987;28;20116;-82
2022/08/30 07:50:44;;;;;;;9.85;8.30;;;;;;;-148.88;89.80;75807.69;5035458;28;20029;-84
2022/08/30 07:53:20;;;;;;;;;;;;;;;;;;;;;
2022/08/30 07:55:54;;;;;;;8.48;7.55;;;;;;;-148.88;89.78;75805.66;5036057;28;20031;-86
2022/08/30 07:58:20;;;;;;;7.55;6.65;;;;;;;-148.88;89.41;75791.44;5035071;28;20025;-86
2022/08/30 08:01:06;;;;;;;8.63;7.65;;;;;;;-148.88;89.14;75797.53;5035895;28;20036;-86
2022/08/30 08:03:32;;;;;;;8.23;7.00;;;;;;;-148.88;89.38;75781.28;5035621;28;20423;-85
2022/08/30 08:06:01;;;;;;;7.97;7.18;;;;;;;-148.88;88.95;75769.09;5035391;28;20032;-86
2022/08/30 08:08:26;;;;;;;8.32;7.45;;;;;;;-148.88;87.53;75752.84;5034218;28;20045;-85
2022/08/30 08:10:51;;;;;;;8.10;6.45;;;;;;;-148.88;86.52;75736.59;5034493;28;20057;-86
2022/08/30 08:13:17;;;;;;;7.32;6.47;;;;;;;-148.88;86.15;75708.16;5034213;28;20032;-86
2022/08/30 08:15:42;;;;;;;7.38;5.95;;;;;;;-148.88;85.30;75702.06;5035572;28;20216;-86
2022/08/30 08:18:07;;;;;;;6.10;5.18;;;;;;;-148.88;85.12;75669.56;5035371;28;20395;-86
2022/08/30 08:20:33;;;;;;;6.10;5.15;;;;;;;-148.88;84.98;75651.28;5035655;28;20044;-86
2022/08/30 08:22:59;;;;;;;5.25;4.53;;;;;;;-148.88;83.27;75639.09;5034341;28;20033;-86
2022/08/30 08:25:25;;;;;;;5.25;4.22;;;;;;;-148.88;81.59;75643.16;5034384;28;20075;-86
2022/08/30 08:27:51;;;;;;;7.32;3.92;;;;;;;-148.88;81.04;75641.13;5033701;28;20372;-86
2022/08/30 08:30:18;;;;;;;5.18;4.38;;;;;;;-148.88;80.97;75671.59;5035233;28;20033;-85
2022/08/30 08:32:43;;;;;;;5.75;4.32;;;;;;;-148.88;81.36;75645.19;5033806;28;20097;-86
2022/08/30 08:35:10;;;;;;;4.93;3.85;;;;;;;-148.88;81.52;75643.16;5035369;28;20024;-85
2022/08/30 08:37:40;;;;;;;5.05;4.18;;;;;;;-148.88;80.75;75602.53;5034427;28;20021;-86
2022/08/30 08:40:20;;;;;;;6.32;5.55;;;;;;;-148.88;79.93;75580.22;5035037;28;20124;-85
2022/08/30 08:43:22;;;;;;;6.63;5.60;;;;;;;-148.88;78.35;75570.03;5034109;28;20047;-86
2022/08/30 08:46:00;;;;;;;7.13;5.90;;;;;;;-148.88;78.37;75561.94;5033074;28;20041;-83
2022/08/30 08:48:37;;;;;;;7.90;6.25;;;;;;;-148.88;76.73;75563.97;5035195;28;20476;-83
2022/08/30 08:53:58;;;;;;;;;;;;;;;-148.88;77.14;75529.44;5035347;28;20033;-84
2022/08/30 08:56:23;;;;;;;6.30;5.63;;;;;;;-148.88;75.93;75539.59;5034386;28;20284;-84
2022/08/30 08:58:58;;;;;;;5.15;4.68;;;;;;;-148.88;75.28;75525.38;5034893;28;20464;-84
2022/08/30 09:01:26;;;;;;;5.78;4.50;;;;;;;-148.88;75.13;75503.03;5033237;28;20033;-84
2022/08/30 09:03:55;;;;;;;10.20;8.02;;;;;;;-148.88;75.04;75490.84;5033161;28;20513;-84
2022/08/30 09:06:56;;;;;;;10.00;7.82;;;;;;;-148.88;75.10;75480.69;5033672;28;20063;-83
2022/08/30 09:09:33;;;;;;;8.10;7.30;;;;;;;-148.88;74.95;75444.13;4995779;28;20021;-84
2022/08/30 09:11:59;;;;;;;10.45;9.18;;;;;;;-148.88;72.79;75478.66;5028017;28;20484;-84
2022/08/30 09:14:30;;;;;;;9.38;8.57;;;;;;;-148.88;73.56;75462.41;5033249;28;20076;-85
2022/08/30 09:16:59;;;;;;;8.98;8.13;;;;;;;-148.88;73.78;75454.28;5033498;28;20116;-84
2022/08/30 09:19:45;;;;;;;9.43;8.20;;;;;;;-148.88;72.93;75427.88;5033117;28;20040;-84
2022/08/30 09:22:27;;;;;;;7.93;7.15;;;;;;;-148.88;71.98;75403.50;5034089;28;20036;-84
2022/08/30 09:25:00;;;;;;;7.35;6.53;;;;;;;-148.88;71.26;75383.19;5033194;28;20029;-83
2022/08/30 09:27:31;;;;;;;5.50;4.90;;;;;;;-148.88;69.34;75375.06;5033545;28;20033;-84
2022/08/30 09:30:04;;;;;;;5.32;4.07;;;;;;;-148.88;68.80;75352.72;5033375;28;20056;-85
2022/08/30 09:32:42;;;;;;;3.30;3.00;;;;;;;-148.88;69.80;75336.47;5033327;28;20056;-84
2022/08/30 09:35:12;;;;;;;4.05;3.30;;;;;;;-148.88;66.56;75354.75;5032892;28;20354;-84
2022/08/30 09:37:45;;;;;;;5.57;3.78;;;;;;;-148.88;66.79;75368.97;5032893;28;20028;-84
2022/08/30 09:40:41;;;;;;;4.30;3.90;;;;;;;-148.88;65.86;75366.94;5034743;28;20030;-84
2022/08/30 09:43:20;;;;;;;4.63;4.22;;;;;;;-148.88;65.64;75330.38;5035176;28;20052;-84
2022/08/30 09:46:09;;;;;;;4.70;4.30;;;;;;;-148.88;65.21;75287.72;5036119;28;20057;-84
2022/08/30 09:48:42;;;;;;;5.45;4.10;;;;;;;-148.88;63.88;75269.47;5034993;28;20031;-84
2022/08/30 09:51:29;;;;;;;4.70;3.72;;;;;;;-148.88;61.95;75208.53;5035415;28;20487;-84
2022/08/30 09:54:04;;;;;;;4.35;3.20;;;;;;;-148.88;63.22;75208.53;5035110;28;20546;-85
2022/08/30 09:56:53;;;;;;;3.70;2.67;;;;;;;-148.88;61.83;75206.50;5036956;28;20028;-84
2022/08/30 09:59:55;;;;;;;2.83;2.38;;;;;;;-148.88;62.27;75192.28;5034740;28;20017;-84
2022/08/30 10:02:58;;;;;;;3.17;2.67;;;;;;;-148.88;60.64;75180.09;5035992;28;20037;-84
2022/08/30 10:05:33;;;;;;;4.25;2.90;;;;;;;-148.88;59.61;75115.09;5033196;28;20063;-85
2022/08/30 10:08:17;;;;;;;3.70;2.83;;;;;;;-148.88;59.05;75129.31;5032383;28;20132;-84
2022/08/30 10:10:51;;;;;;;3.63;2.28;;;;;;;-148.88;59.93;75082.63;5049734;28;20040;-85
2022/08/30 10:13:36;;;;;;;3.78;2.10;;;;;;;-148.88;58.50;75078.56;5057662;28;20017;-85
2022/08/30 10:16:28;;;;;;;2.53;1.85;;;;;;;-148.88;58.62;75072.47;5055020;28;20026;-84
2022/08/30 10:19:15;;;;;;;2.40;2.00;;;;;;;-148.88;57.99;75074.50;5034990;28;20033;-84
2022/08/30 10:21:43;;;;;;;2.97;2.67;;;;;;;-148.88;57.65;75078.56;5031573;28;20025;-85
2022/08/30 10:24:39;;;;;;;3.92;2.10;;;;;;;-148.88;56.48;75021.69;5031717;28;20040;-84
2022/08/30 10:27:10;;;;;;;2.65;1.98;;;;;;;-148.88;58.44;74983.09;5031990;28;20073;-84
2022/08/30 10:30:05;;;;;;;3.22;1.42;;;;;;;-148.88;56.08;75021.69;5031621;28;20025;-84
2022/08/30 10:32:46;;;;;;;2.35;1.25;;;;;;;-148.88;55.71;74999.34;5031995;28;20117;-84
2022/08/30 10:35:36;;;;;;;2.95;1.65;;;;;;;-148.88;55.23;74968.88;5033013;28;20040;-85
2022/08/30 10:38:39;;;;;;;2.92;1.60;;;;;;;-148.88;55.40;74991.22;5032155;28;20044;-85
2022/08/30 10:41:27;;;;;;;4.20;1.40;;;;;;;-148.88;55.24;74944.53;5028998;28;20112;-85
2022/08/30 10:44:24;;;;;;;2.58;1.17;;;;;;;-148.88;54.93;74891.72;5031734;28;20036;-85
2022/08/30 10:47:01;;;;;;;3.60;1.70;;;;;;;-148.88;53.08;74938.44;5021593;28;20046;-85
2022/08/30 10:49:55;;;;;;;3.42;1.90;;;;;;;-148.88;54.24;74881.56;5033098;28;20041;-85
2022/08/30 10:52:55;;;;;;;3.63;2.20;;;;;;;-148.88;53.81;74922.19;5031305;28;20033;-85
2022/08/30 10:55:59;;;;;;;4.18;1.88;;;;;;;-148.88;52.82;74871.41;5023072;28;20029;-85
2022/08/30 10:58:35;;;;;;;4.22;1.90;;;;;;;-148.88;52.43;74830.78;5030325;28;20072;-85
2022/08/30 11:01:26;;;;;;;6.88;1.90;;;;;;;-148.88;51.22;74828.75;5031985;28;20036;-86
2022/08/30 11:04:36;;;;;;;2.53;1.50;;;;;;;-148.88;50.72;74826.72;5031714;28;20037;-85
2022/08/30 11:07:35;;;;;;;2.40;1.50;;;;;;;-148.88;49.55;74802.38;5031856;28;20025;-85
2022/08/30 11:10:32;;;;;;;2.88;1.80;;;;;;;-148.88;50.69;74863.28;5032160;28;20484;-85
2022/08/30 11:13:19;;;;;;;3.20;1.42;;;;;;;-148.88;51.16;74895.78;5031907;28;20109;-86
2022/08/30 11:16:14;;;;;;;2.97;1.40;;;;;;;-148.88;52.02;74824.69;5031424;28;20549;-85
2022/08/30 11:18:57;;;;;;;3.03;1.30;;;;;;;-148.88;49.32;74822.66;5032092;28;20499;-86
2022/08/30 11:21:44;;;;;;;3.08;1.25;;;;;;;-148.88;50.11;74853.13;5031597;28;20451;-85
2022/08/30 11:24:15;;;;;;;2.45;1.60;;;;;;;-148.88;50.69;74836.88;5013726;28;20456;-85
2022/08/30 11:26:53;;;;;;;2.40;1.20;;;;;;;-148.88;49.72;74753.63;5031243;28;20193;-85
2022/08/30 11:29:47;;;;;;;3.45;1.50;;;;;;;-148.88;49.41;74759.72;5032288;28;20491;-86
2022/08/30 11:32:12;;;;;;;;;;;;;;;-148.88;48.25;74790.19;5033032;28;20026;-85
2022/08/30 11:34:46;;;;;;;1.65;0.95;;;;;;;-148.88;50.24;74741.44;5036072;28;19932;-85
2022/08/30 11:38:12;;;;;;;2.15;1.17;;;;;;;-148.88;48.89;74682.56;5035507;28;20025;-85
2022/08/30 11:41:07;;;;;;;2.78;1.00;;;;;;;-148.88;48.55;74629.75;4997942;28;20049;-86
2022/08/30 11:43:38;;;;;;;5.57;1.10;;;;;;;-148.88;46.48;74704.88;4998264;28;20079;-86
2022/08/30 11:46:29;;;;;;;2.15;1.08;;;;;;;-148.88;46.31;74723.16;5023320;28;20380;-85